Terminal Aerodrome Forecast
Issued by NWS Des Moines, IA

Home | Current Version | Previous Version | Text Only | Print | Product List | Glossary On
Versions: 1 2 3 4 5 6 7 8 9 10 11 12 13 14 15 16 17 18 19 20 21 22
000
FTUS43 KDMX 051013 AAA
TAFALO
TAF AMD
KALO 051013Z 0510/0606 18008KT 1/4SM FG VV002
     FM051400 16011KT P6SM SCT040 BKN120
     FM051800 17014KT P6SM BKN120
     FM060300 18009KT P6SM OVC020=

USA.gov is the U.S. government's official web portal to all federal, state and local government web resources and services.